sensor_id;sensor_type;location;lat;lon;timestamp;P1;durP1;ratioP1;P2;durP2;ratioP2
15216;SDS011;7711;46.634;14.318;2023-06-22T00:01:19;24.42;;;14.90;;
15216;SDS011;7711;46.634;14.318;2023-06-22T00:03:47;26.30;;;13.70;;
15216;SDS011;7711;46.634;14.318;2023-06-22T00:06:14;24.02;;;14.07;;
15216;SDS011;7711;46.634;14.318;2023-06-22T00:08:41;25.08;;;14.25;;
15216;SDS011;7711;46.634;14.318;2023-06-22T00:11:08;24.25;;;14.18;;
15216;SDS011;7711;46.634;14.318;2023-06-22T00:13:35;23.42;;;13.63;;
15216;SDS011;7711;46.634;14.318;2023-06-22T00:16:04;30.33;;;14.68;;
15216;SDS011;7711;46.634;14.318;2023-06-22T00:18:31;25.25;;;13.93;;
15216;SDS011;7711;46.634;14.318;2023-06-22T00:20:59;23.00;;;14.13;;
15216;SDS011;7711;46.634;14.318;2023-06-22T00:23:26;27.92;;;14.00;;
15216;SDS011;7711;46.634;14.318;2023-06-22T00:25:54;24.55;;;14.18;;
15216;SDS011;7711;46.634;14.318;2023-06-22T00:28:21;28.77;;;15.35;;
15216;SDS011;7711;46.634;14.318;2023-06-22T00:30:48;25.60;;;14.38;;
15216;SDS011;7711;46.634;14.318;2023-06-22T00:33:17;30.33;;;14.88;;
15216;SDS011;7711;46.634;14.318;2023-06-22T00:35:44;26.40;;;15.43;;
15216;SDS011;7711;46.634;14.318;2023-06-22T00:38:11;24.52;;;15.20;;
15216;SDS011;7711;46.634;14.318;2023-06-22T00:40:38;28.35;;;14.10;;
15216;SDS011;7711;46.634;14.318;2023-06-22T00:43:05;31.45;;;14.75;;
15216;SDS011;7711;46.634;14.318;2023-06-22T00:45:32;25.55;;;14.82;;
15216;SDS011;7711;46.634;14.318;2023-06-22T00:48:00;21.58;;;14.90;;
15216;SDS011;7711;46.634;14.318;2023-06-22T00:50:29;21.35;;;14.50;;
15216;SDS011;7711;46.634;14.318;2023-06-22T00:53:00;25.45;;;14.88;;
15216;SDS011;7711;46.634;14.318;2023-06-22T00:55:33;28.23;;;16.00;;
15216;SDS011;7711;46.634;14.318;2023-06-22T00:58:02;30.00;;;15.73;;
15216;SDS011;7711;46.634;14.318;2023-06-22T01:00:33;23.85;;;14.90;;
15216;SDS011;7711;46.634;14.318;2023-06-22T01:03:01;25.75;;;13.98;;
15216;SDS011;7711;46.634;14.318;2023-06-22T01:05:30;27.60;;;15.52;;
15216;SDS011;7711;46.634;14.318;2023-06-22T01:08:04;24.30;;;14.52;;
15216;SDS011;7711;46.634;14.318;2023-06-22T01:10:40;25.38;;;14.68;;
15216;SDS011;7711;46.634;14.318;2023-06-22T01:13:16;30.08;;;14.35;;
15216;SDS011;7711;46.634;14.318;2023-06-22T01:15:53;28.52;;;14.82;;
15216;SDS011;7711;46.634;14.318;2023-06-22T01:18:26;26.02;;;15.23;;
15216;SDS011;7711;46.634;14.318;2023-06-22T01:20:58;25.13;;;16.13;;
15216;SDS011;7711;46.634;14.318;2023-06-22T01:23:29;27.20;;;15.23;;
15216;SDS011;7711;46.634;14.318;2023-06-22T01:26:09;23.50;;;14.95;;
15216;SDS011;7711;46.634;14.318;2023-06-22T01:28:46;24.63;;;15.02;;
15216;SDS011;7711;46.634;14.318;2023-06-22T01:31:16;29.23;;;15.38;;
15216;SDS011;7711;46.634;14.318;2023-06-22T01:33:46;35.35;;;15.77;;
15216;SDS011;7711;46.634;14.318;2023-06-22T01:36:16;21.35;;;15.25;;
15216;SDS011;7711;46.634;14.318;2023-06-22T01:38:44;29.55;;;16.05;;
15216;SDS011;7711;46.634;14.318;2023-06-22T01:41:12;25.38;;;15.85;;
15216;SDS011;7711;46.634;14.318;2023-06-22T01:43:39;28.05;;;15.75;;
15216;SDS011;7711;46.634;14.318;2023-06-22T01:46:09;24.98;;;16.20;;
15216;SDS011;7711;46.634;14.318;2023-06-22T01:48:36;27.90;;;16.05;;
15216;SDS011;7711;46.634;14.318;2023-06-22T01:51:05;24.98;;;16.25;;
15216;SDS011;7711;46.634;14.318;2023-06-22T01:53:32;23.45;;;15.15;;
15216;SDS011;7711;46.634;14.318;2023-06-22T01:55:59;26.45;;;15.35;;
15216;SDS011;7711;46.634;14.318;2023-06-22T01:58:26;22.88;;;15.60;;
15216;SDS011;7711;46.634;14.318;2023-06-22T02:00:56;25.25;;;15.32;;
15216;SDS011;7711;46.634;14.318;2023-06-22T02:03:31;27.23;;;16.17;;
15216;SDS011;7711;46.634;14.318;2023-06-22T02:06:03;26.30;;;15.55;;
15216;SDS011;7711;46.634;14.318;2023-06-22T02:08:35;27.65;;;16.65;;
15216;SDS011;7711;46.634;14.318;2023-06-22T02:11:06;26.13;;;15.93;;
15216;SDS011;7711;46.634;14.318;2023-06-22T02:13:35;26.55;;;15.75;;
15216;SDS011;7711;46.634;14.318;2023-06-22T02:16:03;27.33;;;15.93;;
15216;SDS011;7711;46.634;14.318;2023-06-22T02:18:31;28.98;;;17.80;;
15216;SDS011;7711;46.634;14.318;2023-06-22T02:21:01;28.15;;;16.48;;
15216;SDS011;7711;46.634;14.318;2023-06-22T02:23:28;26.95;;;17.45;;
15216;SDS011;7711;46.634;14.318;2023-06-22T02:25:55;24.77;;;17.00;;
15216;SDS011;7711;46.634;14.318;2023-06-22T02:28:22;30.02;;;16.67;;
15216;SDS011;7711;46.634;14.318;2023-06-22T02:30:49;25.42;;;17.00;;
15216;SDS011;7711;46.634;14.318;2023-06-22T02:33:16;24.95;;;16.92;;
15216;SDS011;7711;46.634;14.318;2023-06-22T02:35:44;28.02;;;16.98;;
15216;SDS011;7711;46.634;14.318;2023-06-22T02:38:14;29.10;;;16.38;;
15216;SDS011;7711;46.634;14.318;2023-06-22T02:40:42;27.40;;;16.83;;
15216;SDS011;7711;46.634;14.318;2023-06-22T02:43:09;26.92;;;16.35;;
15216;SDS011;7711;46.634;14.318;2023-06-22T02:45:36;25.83;;;17.35;;
15216;SDS011;7711;46.634;14.318;2023-06-22T02:48:03;30.63;;;16.77;;
15216;SDS011;7711;46.634;14.318;2023-06-22T02:50:31;25.85;;;18.05;;
15216;SDS011;7711;46.634;14.318;2023-06-22T02:52:59;25.73;;;16.60;;
15216;SDS011;7711;46.634;14.318;2023-06-22T02:55:26;30.05;;;17.98;;
15216;SDS011;7711;46.634;14.318;2023-06-22T02:57:53;24.05;;;16.88;;
15216;SDS011;7711;46.634;14.318;2023-06-22T03:00:22;26.85;;;17.10;;
15216;SDS011;7711;46.634;14.318;2023-06-22T03:02:55;27.40;;;16.42;;
15216;SDS011;7711;46.634;14.318;2023-06-22T03:05:23;24.30;;;16.63;;
15216;SDS011;7711;46.634;14.318;2023-06-22T03:07:50;24.90;;;17.67;;
15216;SDS011;7711;46.634;14.318;2023-06-22T03:10:18;22.65;;;17.00;;
15216;SDS011;7711;46.634;14.318;2023-06-22T03:12:45;23.98;;;17.00;;
15216;SDS011;7711;46.634;14.318;2023-06-22T03:15:13;28.02;;;17.55;;
15216;SDS011;7711;46.634;14.318;2023-06-22T03:17:40;26.10;;;16.65;;
15216;SDS011;7711;46.634;14.318;2023-06-22T03:20:07;27.25;;;17.08;;
15216;SDS011;7711;46.634;14.318;2023-06-22T03:22:36;30.30;;;17.15;;
15216;SDS011;7711;46.634;14.318;2023-06-22T03:25:04;26.02;;;16.33;;
15216;SDS011;7711;46.634;14.318;2023-06-22T03:27:36;29.17;;;17.27;;
15216;SDS011;7711;46.634;14.318;2023-06-22T03:30:04;25.08;;;17.23;;
15216;SDS011;7711;46.634;14.318;2023-06-22T03:32:32;28.85;;;17.50;;
15216;SDS011;7711;46.634;14.318;2023-06-22T03:34:59;33.90;;;18.13;;
15216;SDS011;7711;46.634;14.318;2023-06-22T03:37:26;29.13;;;17.40;;
15216;SDS011;7711;46.634;14.318;2023-06-22T03:39:53;29.15;;;17.25;;
15216;SDS011;7711;46.634;14.318;2023-06-22T03:42:20;28.52;;;17.95;;
15216;SDS011;7711;46.634;14.318;2023-06-22T03:44:49;24.13;;;16.98;;
15216;SDS011;7711;46.634;14.318;2023-06-22T03:47:16;28.25;;;17.20;;
15216;SDS011;7711;46.634;14.318;2023-06-22T03:49:43;32.33;;;17.15;;
15216;SDS011;7711;46.634;14.318;2023-06-22T03:52:10;30.02;;;17.20;;
15216;SDS011;7711;46.634;14.318;2023-06-22T03:54:37;26.77;;;16.85;;
15216;SDS011;7711;46.634;14.318;2023-06-22T03:57:04;27.05;;;17.25;;
15216;SDS011;7711;46.634;14.318;2023-06-22T03:59:31;28.00;;;17.00;;
15216;SDS011;7711;46.634;14.318;2023-06-22T04:02:00;32.03;;;17.35;;
15216;SDS011;7711;46.634;14.318;2023-06-22T04:04:27;25.83;;;16.33;;
15216;SDS011;7711;46.634;14.318;2023-06-22T04:06:54;27.88;;;17.05;;
15216;SDS011;7711;46.634;14.318;2023-06-22T04:09:21;22.05;;;17.92;;
15216;SDS011;7711;46.634;14.318;2023-06-22T04:11:48;25.92;;;17.35;;
15216;SDS011;7711;46.634;14.318;2023-06-22T04:14:15;27.13;;;16.75;;
15216;SDS011;7711;46.634;14.318;2023-06-22T04:16:42;23.40;;;16.65;;
15216;SDS011;7711;46.634;14.318;2023-06-22T04:19:10;25.65;;;15.77;;
15216;SDS011;7711;46.634;14.318;2023-06-22T04:21:41;25.92;;;16.48;;
15216;SDS011;7711;46.634;14.318;2023-06-22T04:24:08;30.17;;;17.98;;
15216;SDS011;7711;46.634;14.318;2023-06-22T04:26:35;27.25;;;17.05;;
15216;SDS011;7711;46.634;14.318;2023-06-22T04:29:03;29.08;;;17.38;;
15216;SDS011;7711;46.634;14.318;2023-06-22T04:31:31;27.33;;;16.35;;
15216;SDS011;7711;46.634;14.318;2023-06-22T04:34:01;25.95;;;16.02;;
15216;SDS011;7711;46.634;14.318;2023-06-22T04:36:33;27.92;;;16.50;;
15216;SDS011;7711;46.634;14.318;2023-06-22T04:39:03;26.75;;;16.85;;
15216;SDS011;7711;46.634;14.318;2023-06-22T04:41:32;22.67;;;17.23;;
15216;SDS011;7711;46.634;14.318;2023-06-22T04:44:07;22.65;;;15.57;;
15216;SDS011;7711;46.634;14.318;2023-06-22T04:46:35;26.92;;;15.57;;
15216;SDS011;7711;46.634;14.318;2023-06-22T04:49:04;25.08;;;16.10;;
15216;SDS011;7711;46.634;14.318;2023-06-22T04:51:36;26.55;;;15.88;;
15216;SDS011;7711;46.634;14.318;2023-06-22T04:54:04;22.10;;;14.85;;
15216;SDS011;7711;46.634;14.318;2023-06-22T04:56:31;22.70;;;15.50;;
15216;SDS011;7711;46.634;14.318;2023-06-22T04:58:58;26.75;;;15.95;;
15216;SDS011;7711;46.634;14.318;2023-06-22T05:01:25;26.45;;;15.70;;
15216;SDS011;7711;46.634;14.318;2023-06-22T05:03:53;22.25;;;15.98;;
15216;SDS011;7711;46.634;14.318;2023-06-22T05:06:22;23.15;;;14.88;;
15216;SDS011;7711;46.634;14.318;2023-06-22T05:08:52;28.25;;;15.65;;
15216;SDS011;7711;46.634;14.318;2023-06-22T05:11:22;27.83;;;16.20;;
15216;SDS011;7711;46.634;14.318;2023-06-22T05:13:49;22.70;;;15.13;;
15216;SDS011;7711;46.634;14.318;2023-06-22T05:16:16;22.75;;;14.63;;
15216;SDS011;7711;46.634;14.318;2023-06-22T05:18:48;23.30;;;15.35;;
15216;SDS011;7711;46.634;14.318;2023-06-22T05:21:16;24.23;;;15.75;;
15216;SDS011;7711;46.634;14.318;2023-06-22T05:23:44;24.83;;;15.48;;
15216;SDS011;7711;46.634;14.318;2023-06-22T05:26:12;21.25;;;15.38;;
15216;SDS011;7711;46.634;14.318;2023-06-22T05:28:39;23.45;;;15.40;;
15216;SDS011;7711;46.634;14.318;2023-06-22T05:31:06;21.83;;;15.98;;
15216;SDS011;7711;46.634;14.318;2023-06-22T05:33:33;28.02;;;17.48;;
15216;SDS011;7711;46.634;14.318;2023-06-22T05:36:00;21.70;;;16.05;;
15216;SDS011;7711;46.634;14.318;2023-06-22T05:38:27;24.63;;;15.48;;
15216;SDS011;7711;46.634;14.318;2023-06-22T05:40:54;24.15;;;15.90;;
15216;SDS011;7711;46.634;14.318;2023-06-22T05:43:23;25.73;;;16.15;;
15216;SDS011;7711;46.634;14.318;2023-06-22T05:45:50;23.23;;;16.10;;
15216;SDS011;7711;46.634;14.318;2023-06-22T05:48:17;27.88;;;15.73;;
15216;SDS011;7711;46.634;14.318;2023-06-22T05:50:44;22.75;;;15.57;;
15216;SDS011;7711;46.634;14.318;2023-06-22T05:53:11;23.77;;;16.08;;
15216;SDS011;7711;46.634;14.318;2023-06-22T05:55:38;26.73;;;16.95;;
15216;SDS011;7711;46.634;14.318;2023-06-22T05:58:05;21.80;;;15.23;;
15216;SDS011;7711;46.634;14.318;2023-06-22T06:00:34;25.15;;;16.73;;
15216;SDS011;7711;46.634;14.318;2023-06-22T06:03:01;24.25;;;16.92;;
15216;SDS011;7711;46.634;14.318;2023-06-22T06:05:29;27.55;;;16.13;;
15216;SDS011;7711;46.634;14.318;2023-06-22T06:07:56;24.35;;;15.68;;
15216;SDS011;7711;46.634;14.318;2023-06-22T06:10:23;27.75;;;15.98;;
15216;SDS011;7711;46.634;14.318;2023-06-22T06:12:51;23.70;;;15.23;;
15216;SDS011;7711;46.634;14.318;2023-06-22T06:15:18;23.50;;;15.95;;
15216;SDS011;7711;46.634;14.318;2023-06-22T06:17:47;24.55;;;15.23;;
15216;SDS011;7711;46.634;14.318;2023-06-22T06:20:14;25.95;;;14.95;;
15216;SDS011;7711;46.634;14.318;2023-06-22T06:22:42;20.10;;;15.82;;
15216;SDS011;7711;46.634;14.318;2023-06-22T06:25:09;28.02;;;15.75;;
15216;SDS011;7711;46.634;14.318;2023-06-22T06:27:41;23.80;;;15.98;;
15216;SDS011;7711;46.634;14.318;2023-06-22T06:30:09;30.02;;;17.00;;
15216;SDS011;7711;46.634;14.318;2023-06-22T06:32:37;28.77;;;18.02;;
15216;SDS011;7711;46.634;14.318;2023-06-22T06:35:07;25.50;;;16.08;;
15216;SDS011;7711;46.634;14.318;2023-06-22T06:37:35;25.63;;;16.55;;
15216;SDS011;7711;46.634;14.318;2023-06-22T06:40:04;24.17;;;16.15;;
15216;SDS011;7711;46.634;14.318;2023-06-22T06:42:33;25.27;;;16.63;;
15216;SDS011;7711;46.634;14.318;2023-06-22T06:45:01;22.83;;;16.33;;
15216;SDS011;7711;46.634;14.318;2023-06-22T06:47:28;25.05;;;16.55;;
15216;SDS011;7711;46.634;14.318;2023-06-22T06:49:55;25.05;;;15.85;;
15216;SDS011;7711;46.634;14.318;2023-06-22T06:52:23;25.05;;;16.90;;
15216;SDS011;7711;46.634;14.318;2023-06-22T06:54:50;23.58;;;16.27;;
15216;SDS011;7711;46.634;14.318;2023-06-22T06:57:17;25.00;;;17.02;;
15216;SDS011;7711;46.634;14.318;2023-06-22T06:59:45;23.98;;;16.70;;
15216;SDS011;7711;46.634;14.318;2023-06-22T07:02:12;30.30;;;17.80;;
15216;SDS011;7711;46.634;14.318;2023-06-22T07:04:39;30.15;;;17.00;;
15216;SDS011;7711;46.634;14.318;2023-06-22T07:07:07;28.92;;;17.02;;
15216;SDS011;7711;46.634;14.318;2023-06-22T07:09:35;24.50;;;17.38;;
15216;SDS011;7711;46.634;14.318;2023-06-22T07:12:02;25.52;;;16.88;;
15216;SDS011;7711;46.634;14.318;2023-06-22T07:14:30;24.65;;;16.92;;
15216;SDS011;7711;46.634;14.318;2023-06-22T07:16:57;26.30;;;16.75;;
15216;SDS011;7711;46.634;14.318;2023-06-22T07:19:24;26.20;;;17.00;;
15216;SDS011;7711;46.634;14.318;2023-06-22T07:21:52;26.20;;;17.65;;
15216;SDS011;7711;46.634;14.318;2023-06-22T07:24:19;23.55;;;17.20;;
15216;SDS011;7711;46.634;14.318;2023-06-22T07:26:48;25.77;;;16.63;;
15216;SDS011;7711;46.634;14.318;2023-06-22T07:29:16;58.92;;;21.40;;
15216;SDS011;7711;46.634;14.318;2023-06-22T07:31:44;32.65;;;17.85;;
15216;SDS011;7711;46.634;14.318;2023-06-22T07:34:12;35.22;;;18.05;;
15216;SDS011;7711;46.634;14.318;2023-06-22T07:36:38;30.42;;;16.98;;
15216;SDS011;7711;46.634;14.318;2023-06-22T07:39:06;28.17;;;18.02;;
15216;SDS011;7711;46.634;14.318;2023-06-22T07:41:33;24.48;;;16.90;;
15216;SDS011;7711;46.634;14.318;2023-06-22T07:44:01;24.70;;;15.95;;
15216;SDS011;7711;46.634;14.318;2023-06-22T07:46:29;32.40;;;18.10;;
15216;SDS011;7711;46.634;14.318;2023-06-22T07:48:56;27.70;;;17.80;;
15216;SDS011;7711;46.634;14.318;2023-06-22T07:51:24;26.85;;;17.40;;
15216;SDS011;7711;46.634;14.318;2023-06-22T07:53:51;28.50;;;17.05;;
15216;SDS011;7711;46.634;14.318;2023-06-22T07:56:18;23.85;;;16.83;;
15216;SDS011;7711;46.634;14.318;2023-06-22T07:58:46;23.63;;;16.45;;
15216;SDS011;7711;46.634;14.318;2023-06-22T08:01:14;28.70;;;16.95;;
15216;SDS011;7711;46.634;14.318;2023-06-22T08:03:41;25.17;;;16.92;;
15216;SDS011;7711;46.634;14.318;2023-06-22T08:06:09;24.10;;;16.98;;
15216;SDS011;7711;46.634;14.318;2023-06-22T08:08:36;20.65;;;16.60;;
15216;SDS011;7711;46.634;14.318;2023-06-22T08:11:03;24.40;;;16.50;;
15216;SDS011;7711;46.634;14.318;2023-06-22T08:13:30;22.90;;;16.25;;
15216;SDS011;7711;46.634;14.318;2023-06-22T08:15:57;23.02;;;16.50;;
15216;SDS011;7711;46.634;14.318;2023-06-22T08:18:26;24.85;;;16.88;;
15216;SDS011;7711;46.634;14.318;2023-06-22T08:20:53;21.42;;;16.63;;
15216;SDS011;7711;46.634;14.318;2023-06-22T08:23:20;24.08;;;16.40;;
15216;SDS011;7711;46.634;14.318;2023-06-22T08:25:47;26.58;;;17.17;;
15216;SDS011;7711;46.634;14.318;2023-06-22T08:28:15;23.88;;;17.38;;
15216;SDS011;7711;46.634;14.318;2023-06-22T08:30:42;29.13;;;17.63;;
15216;SDS011;7711;46.634;14.318;2023-06-22T08:33:09;22.73;;;15.70;;
15216;SDS011;7711;46.634;14.318;2023-06-22T08:35:37;21.13;;;16.00;;
15216;SDS011;7711;46.634;14.318;2023-06-22T08:38:05;24.92;;;16.35;;
15216;SDS011;7711;46.634;14.318;2023-06-22T08:40:33;23.75;;;16.55;;
15216;SDS011;7711;46.634;14.318;2023-06-22T08:43:00;24.98;;;15.93;;
15216;SDS011;7711;46.634;14.318;2023-06-22T08:45:27;32.13;;;17.50;;
15216;SDS011;7711;46.634;14.318;2023-06-22T08:47:54;24.70;;;17.10;;
15216;SDS011;7711;46.634;14.318;2023-06-22T08:50:21;25.40;;;16.75;;
15216;SDS011;7711;46.634;14.318;2023-06-22T08:52:49;28.48;;;16.50;;
15216;SDS011;7711;46.634;14.318;2023-06-22T08:55:16;24.17;;;16.63;;
15216;SDS011;7711;46.634;14.318;2023-06-22T08:57:43;22.85;;;16.05;;
15216;SDS011;7711;46.634;14.318;2023-06-22T09:00:10;24.65;;;16.27;;
15216;SDS011;7711;46.634;14.318;2023-06-22T09:02:45;23.25;;;17.00;;
15216;SDS011;7711;46.634;14.318;2023-06-22T09:05:14;24.45;;;17.45;;
15216;SDS011;7711;46.634;14.318;2023-06-22T09:07:41;24.08;;;16.92;;
15216;SDS011;7711;46.634;14.318;2023-06-22T09:10:10;26.50;;;17.42;;
15216;SDS011;7711;46.634;14.318;2023-06-22T09:12:37;23.63;;;17.48;;
15216;SDS011;7711;46.634;14.318;2023-06-22T09:15:05;24.42;;;17.92;;
15216;SDS011;7711;46.634;14.318;2023-06-22T09:17:33;26.45;;;17.45;;
15216;SDS011;7711;46.634;14.318;2023-06-22T09:20:02;22.83;;;16.42;;
15216;SDS011;7711;46.634;14.318;2023-06-22T09:22:31;26.33;;;17.45;;
15216;SDS011;7711;46.634;14.318;2023-06-22T09:24:58;23.00;;;15.98;;
15216;SDS011;7711;46.634;14.318;2023-06-22T09:27:27;27.10;;;18.25;;
15216;SDS011;7711;46.634;14.318;2023-06-22T09:29:54;27.75;;;19.15;;
15216;SDS011;7711;46.634;14.318;2023-06-22T09:32:23;28.67;;;17.67;;
15216;SDS011;7711;46.634;14.318;2023-06-22T09:34:50;28.13;;;17.65;;
15216;SDS011;7711;46.634;14.318;2023-06-22T09:37:18;28.67;;;17.75;;
15216;SDS011;7711;46.634;14.318;2023-06-22T09:39:45;27.23;;;17.15;;
15216;SDS011;7711;46.634;14.318;2023-06-22T09:42:11;24.30;;;16.17;;
15216;SDS011;7711;46.634;14.318;2023-06-22T09:44:40;32.92;;;17.05;;
15216;SDS011;7711;46.634;14.318;2023-06-22T09:47:07;22.48;;;16.08;;
15216;SDS011;7711;46.634;14.318;2023-06-22T09:49:34;26.70;;;16.05;;
15216;SDS011;7711;46.634;14.318;2023-06-22T09:52:01;23.05;;;16.55;;
15216;SDS011;7711;46.634;14.318;2023-06-22T09:54:28;25.38;;;17.10;;
15216;SDS011;7711;46.634;14.318;2023-06-22T09:56:56;23.65;;;17.05;;
15216;SDS011;7711;46.634;14.318;2023-06-22T09:59:23;25.08;;;16.42;;
15216;SDS011;7711;46.634;14.318;2023-06-22T10:01:51;23.20;;;15.45;;
15216;SDS011;7711;46.634;14.318;2023-06-22T10:04:18;22.83;;;15.43;;
15216;SDS011;7711;46.634;14.318;2023-06-22T10:06:45;22.35;;;15.38;;
15216;SDS011;7711;46.634;14.318;2023-06-22T10:09:12;24.85;;;16.27;;
15216;SDS011;7711;46.634;14.318;2023-06-22T10:11:39;25.80;;;15.55;;
15216;SDS011;7711;46.634;14.318;2023-06-22T10:14:06;26.52;;;15.88;;
15216;SDS011;7711;46.634;14.318;2023-06-22T10:16:35;24.10;;;15.55;;
15216;SDS011;7711;46.634;14.318;2023-06-22T10:19:04;21.67;;;16.17;;
15216;SDS011;7711;46.634;14.318;2023-06-22T10:21:31;20.65;;;15.20;;
15216;SDS011;7711;46.634;14.318;2023-06-22T10:23:59;25.33;;;16.33;;
15216;SDS011;7711;46.634;14.318;2023-06-22T10:26:31;20.83;;;15.50;;
15216;SDS011;7711;46.634;14.318;2023-06-22T10:28:58;23.83;;;16.33;;
15216;SDS011;7711;46.634;14.318;2023-06-22T10:31:25;32.05;;;16.50;;
15216;SDS011;7711;46.634;14.318;2023-06-22T10:33:52;22.88;;;14.93;;
15216;SDS011;7711;46.634;14.318;2023-06-22T10:36:21;24.90;;;14.85;;
15216;SDS011;7711;46.634;14.318;2023-06-22T10:38:49;20.33;;;15.90;;
15216;SDS011;7711;46.634;14.318;2023-06-22T10:41:16;22.75;;;15.18;;
15216;SDS011;7711;46.634;14.318;2023-06-22T10:43:43;23.77;;;14.80;;
15216;SDS011;7711;46.634;14.318;2023-06-22T10:46:10;21.90;;;15.80;;
15216;SDS011;7711;46.634;14.318;2023-06-22T10:48:37;20.98;;;15.82;;
15216;SDS011;7711;46.634;14.318;2023-06-22T10:51:04;25.42;;;15.25;;
15216;SDS011;7711;46.634;14.318;2023-06-22T10:53:32;27.60;;;14.68;;
15216;SDS011;7711;46.634;14.318;2023-06-22T10:55:59;21.58;;;15.13;;
15216;SDS011;7711;46.634;14.318;2023-06-22T10:58:26;25.63;;;15.50;;
15216;SDS011;7711;46.634;14.318;2023-06-22T11:00:53;24.33;;;14.88;;
15216;SDS011;7711;46.634;14.318;2023-06-22T11:03:20;20.88;;;15.05;;
15216;SDS011;7711;46.634;14.318;2023-06-22T11:05:47;24.08;;;13.88;;
15216;SDS011;7711;46.634;14.318;2023-06-22T11:08:14;22.35;;;14.25;;
15216;SDS011;7711;46.634;14.318;2023-06-22T11:10:43;26.77;;;15.55;;
15216;SDS011;7711;46.634;14.318;2023-06-22T11:13:10;20.70;;;15.32;;
15216;SDS011;7711;46.634;14.318;2023-06-22T11:15:38;24.73;;;15.88;;
15216;SDS011;7711;46.634;14.318;2023-06-22T11:18:05;25.92;;;15.32;;
15216;SDS011;7711;46.634;14.318;2023-06-22T11:20:33;27.15;;;15.52;;
15216;SDS011;7711;46.634;14.318;2023-06-22T11:23:03;25.70;;;15.05;;
15216;SDS011;7711;46.634;14.318;2023-06-22T11:25:30;21.45;;;14.32;;
15216;SDS011;7711;46.634;14.318;2023-06-22T11:28:02;24.48;;;15.35;;
15216;SDS011;7711;46.634;14.318;2023-06-22T11:30:29;22.08;;;15.25;;
15216;SDS011;7711;46.634;14.318;2023-06-22T11:32:56;28.85;;;16.02;;
15216;SDS011;7711;46.634;14.318;2023-06-22T11:35:24;22.80;;;15.25;;
15216;SDS011;7711;46.634;14.318;2023-06-22T11:37:52;20.80;;;14.07;;
15216;SDS011;7711;46.634;14.318;2023-06-22T11:40:19;27.67;;;15.60;;
15216;SDS011;7711;46.634;14.318;2023-06-22T11:42:47;24.65;;;14.73;;
15216;SDS011;7711;46.634;14.318;2023-06-22T11:45:16;22.55;;;14.75;;
15216;SDS011;7711;46.634;14.318;2023-06-22T11:47:44;20.17;;;14.00;;
15216;SDS011;7711;46.634;14.318;2023-06-22T11:50:11;20.70;;;14.20;;
15216;SDS011;7711;46.634;14.318;2023-06-22T11:52:37;20.83;;;14.00;;
15216;SDS011;7711;46.634;14.318;2023-06-22T11:55:05;24.55;;;14.00;;
15216;SDS011;7711;46.634;14.318;2023-06-22T11:57:33;23.38;;;14.25;;
15216;SDS011;7711;46.634;14.318;2023-06-22T12:00:01;22.30;;;13.52;;
15216;SDS011;7711;46.634;14.318;2023-06-22T12:02:37;25.45;;;13.85;;
15216;SDS011;7711;46.634;14.318;2023-06-22T12:05:04;22.08;;;14.18;;
15216;SDS011;7711;46.634;14.318;2023-06-22T12:07:33;21.95;;;12.65;;
15216;SDS011;7711;46.634;14.318;2023-06-22T12:10:00;23.45;;;13.90;;
15216;SDS011;7711;46.634;14.318;2023-06-22T12:12:27;20.02;;;14.00;;
15216;SDS011;7711;46.634;14.318;2023-06-22T12:14:54;20.02;;;13.30;;
15216;SDS011;7711;46.634;14.318;2023-06-22T12:17:21;22.80;;;13.10;;
15216;SDS011;7711;46.634;14.318;2023-06-22T12:19:50;19.23;;;13.48;;
15216;SDS011;7711;46.634;14.318;2023-06-22T12:22:17;21.45;;;13.18;;
15216;SDS011;7711;46.634;14.318;2023-06-22T12:24:44;16.95;;;13.23;;
15216;SDS011;7711;46.634;14.318;2023-06-22T12:27:11;21.00;;;12.55;;
15216;SDS011;7711;46.634;14.318;2023-06-22T12:29:41;18.05;;;13.27;;
15216;SDS011;7711;46.634;14.318;2023-06-22T12:32:08;25.25;;;14.02;;
15216;SDS011;7711;46.634;14.318;2023-06-22T12:34:37;26.95;;;13.90;;
15216;SDS011;7711;46.634;14.318;2023-06-22T12:37:06;23.25;;;13.15;;
15216;SDS011;7711;46.634;14.318;2023-06-22T12:39:33;24.13;;;11.98;;
15216;SDS011;7711;46.634;14.318;2023-06-22T12:42:00;20.98;;;11.93;;
15216;SDS011;7711;46.634;14.318;2023-06-22T12:44:27;23.25;;;12.95;;
15216;SDS011;7711;46.634;14.318;2023-06-22T12:46:54;21.63;;;12.80;;
15216;SDS011;7711;46.634;14.318;2023-06-22T12:49:21;24.77;;;13.35;;
15216;SDS011;7711;46.634;14.318;2023-06-22T12:51:49;18.63;;;11.55;;
15216;SDS011;7711;46.634;14.318;2023-06-22T12:54:17;20.88;;;11.70;;
15216;SDS011;7711;46.634;14.318;2023-06-22T12:56:44;20.98;;;11.05;;
15216;SDS011;7711;46.634;14.318;2023-06-22T12:59:11;19.00;;;11.07;;
15216;SDS011;7711;46.634;14.318;2023-06-22T13:01:38;17.48;;;11.70;;
15216;SDS011;7711;46.634;14.318;2023-06-22T13:04:05;18.42;;;11.80;;
15216;SDS011;7711;46.634;14.318;2023-06-22T13:06:32;18.45;;;11.48;;
15216;SDS011;7711;46.634;14.318;2023-06-22T13:08:59;22.00;;;11.88;;
15216;SDS011;7711;46.634;14.318;2023-06-22T13:11:27;35.95;;;11.70;;
15216;SDS011;7711;46.634;14.318;2023-06-22T13:13:54;19.33;;;11.38;;
15216;SDS011;7711;46.634;14.318;2023-06-22T13:16:21;22.40;;;12.07;;
15216;SDS011;7711;46.634;14.318;2023-06-22T13:18:48;17.30;;;11.35;;
15216;SDS011;7711;46.634;14.318;2023-06-22T13:21:15;18.95;;;11.80;;
15216;SDS011;7711;46.634;14.318;2023-06-22T13:23:42;21.33;;;12.60;;
15216;SDS011;7711;46.634;14.318;2023-06-22T13:26:09;17.27;;;11.55;;
15216;SDS011;7711;46.634;14.318;2023-06-22T13:28:38;20.42;;;11.40;;
15216;SDS011;7711;46.634;14.318;2023-06-22T13:31:05;21.00;;;11.88;;
15216;SDS011;7711;46.634;14.318;2023-06-22T13:33:32;21.02;;;12.60;;
15216;SDS011;7711;46.634;14.318;2023-06-22T13:35:59;18.02;;;11.50;;
15216;SDS011;7711;46.634;14.318;2023-06-22T13:38:28;18.98;;;11.50;;
15216;SDS011;7711;46.634;14.318;2023-06-22T13:40:55;24.80;;;12.35;;
15216;SDS011;7711;46.634;14.318;2023-06-22T13:43:24;23.55;;;12.52;;
15216;SDS011;7711;46.634;14.318;2023-06-22T13:45:54;24.10;;;12.15;;
15216;SDS011;7711;46.634;14.318;2023-06-22T13:48:21;18.08;;;11.80;;
15216;SDS011;7711;46.634;14.318;2023-06-22T13:50:48;20.35;;;11.27;;
15216;SDS011;7711;46.634;14.318;2023-06-22T13:53:15;16.98;;;11.35;;
15216;SDS011;7711;46.634;14.318;2023-06-22T13:55:42;19.92;;;9.70;;
15216;SDS011;7711;46.634;14.318;2023-06-22T13:58:09;16.65;;;10.00;;
15216;SDS011;7711;46.634;14.318;2023-06-22T14:00:36;18.33;;;11.00;;
15216;SDS011;7711;46.634;14.318;2023-06-22T14:03:05;20.10;;;11.25;;
15216;SDS011;7711;46.634;14.318;2023-06-22T14:05:32;19.90;;;11.27;;
15216;SDS011;7711;46.634;14.318;2023-06-22T14:07:59;15.32;;;10.82;;
15216;SDS011;7711;46.634;14.318;2023-06-22T14:10:26;18.65;;;10.70;;
15216;SDS011;7711;46.634;14.318;2023-06-22T14:12:53;20.05;;;11.23;;
15216;SDS011;7711;46.634;14.318;2023-06-22T14:15:20;16.02;;;10.23;;
15216;SDS011;7711;46.634;14.318;2023-06-22T14:17:47;20.30;;;11.32;;
15216;SDS011;7711;46.634;14.318;2023-06-22T14:20:16;19.13;;;10.88;;
15216;SDS011;7711;46.634;14.318;2023-06-22T14:22:42;27.38;;;11.20;;
15216;SDS011;7711;46.634;14.318;2023-06-22T14:25:10;19.58;;;10.80;;